Observations for STANSTED AIRPORT, United Kingdom (EGSS)

EGSS 250320Z 29002KT CAVOK M02/M03 Q1011
EGSS 250250Z 25004KT CAVOK M02/M02 Q1011
EGSS 250220Z AUTO VRB01KT 7000 NCD M02/M03 Q1012
EGSS 250150Z AUTO VRB02KT 9999 NCD M02/M02 Q1012
EGSS 250120Z 26003KT 9000 NSC M02/M02 Q1012 
EGSS 250050Z 24003KT 8000 NSC M01/M01 Q1012 
EGSS 250020Z AUTO 22004KT 8000 NCD M01/M02 Q1012
EGSS 242350Z 21004KT 7000 NSC M01/M02 Q1012 
EGSS 242320Z 22004KT 7000 NSC M01/M01 Q1012 
EGSS 242250Z AUTO 21002KT 0550 FZFG NCD M02/M02 Q1012   
EGSS 242220Z AUTO 24002KT 9999 NCD M00/M01 Q1012
EGSS 242150Z AUTO 20003KT 8000 NCD M01/M02 Q1012
EGSS 242120Z AUTO 26002KT 9999 NCD M01/M02 Q1012
EGSS 242050Z AUTO 23003KT 9999 NCD 00/M01 Q1012 
EGSS 242020Z AUTO VRB03KT 9999 NCD 01/M00 Q1012 
EGSS 241950Z AUTO VRB02KT 9999 NCD 00/M01 Q1012 
EGSS 241920Z AUTO 28003KT 9999 NCD 01/M01 Q1012 
EGSS 241850Z AUTO 31003KT 9999 NCD 01/M00 Q1012 
EGSS 241820Z AUTO 29003KT 9999 NCD 03/00 Q1012  
EGSS 241750Z AUTO 24002KT 9999 NCD 02/00 Q1012  
EGSS 241720Z AUTO 27002KT 9999 NCD 03/00 Q1012  
EGSS 241650Z AUTO 23004KT 9999 NCD 03/01 Q1012  
EGSS 241620Z AUTO 23003KT 9999 NCD 03/01 Q1012  
EGSS 241550Z AUTO 23003KT 9999 NCD 05/01 Q1012  
EGSS 241520Z AUTO VRB02KT 9999 NCD 05/01 Q1012  
EGSS 241450Z AUTO 28002KT 9999 NCD 06/01 Q1012  
EGSS 241420Z AUTO 24003KT 9999 NCD 06/01 Q1011  
EGSS 241350Z AUTO 28003KT 9999 NCD 07/01 Q1011  
EGSS 241320Z AUTO 31003KT 9999 NCD 07/01 Q1011  
EGSS 241250Z AUTO VRB03KT 9999 NCD 07/01 Q1011  
EGSS 241220Z AUTO VRB03KT 9999 NCD 07/01 Q1011  
EGSS 241150Z AUTO 33005KT 9999 NCD 06/01 Q1011  
EGSS 241120Z AUTO 31006KT 280V350 9999 NCD 07/02 Q1011  
EGSS 241050Z AUTO 31004KT 280V350 9999 NCD 07/02 Q1011  
EGSS 241020Z AUTO 32005KT 290V360 9999 NCD 06/02 Q1011  
EGSS 240950Z AUTO 31005KT 280V340 9999 NCD 05/02 Q1010  
EGSS 240920Z AUTO 33003KT 9999 NCD 05/02 Q1010  
EGSS 240850Z AUTO 31003KT 9999 NCD 04/02 Q1010  
EGSS 240820Z AUTO 30003KT 9999 NCD 04/02 Q1010  
EGSS 240750Z AUTO 29003KT 9999 NCD 04/03 Q1009  
EGSS 240720Z AUTO 28003KT 9999 NCD 04/02 Q1008  
EGSS 240650Z AUTO 27002KT 9999 NCD 04/02 Q1008  
EGSS 240620Z AUTO 31002KT 9999 NCD 04/03 Q1008  
EGSS 240550Z AUTO 26002KT 9999 NCD 04/02 Q1007  
EGSS 240520Z AUTO VRB01KT 9999 NCD 05/02 Q1007  
EGSS 240450Z AUTO 28002KT 9999 NCD 05/03 Q1007  
EGSS 240420Z AUTO 28003KT 9999 NCD 06/02 Q1007  
EGSS 240350Z AUTO 24002KT 9999 NCD 05/02 Q1006  
EGSS 240320Z AUTO 24003KT 9999 NCD 05/02 Q1006  
EGSS 240250Z AUTO 26002KT 9999 NCD 06/02 Q1006